Solea — DBFH — position and weather

sailwx.info

Track history (hours):
 
Tides and Currents Weather Stations Pressure Air Temp Water Temp Dewpoint Dewpoint Depression Visibility Wind Speed Wind Dir Waves Ship Positions

Solea

Last reported at 2018-Apr-25 06:21 UTC. Time now 2018-Apr-25 06:47 UTC.
Position N 54°07' E 012°05'.

Length 42.7 m; beam 9.8 m; draft 4.8 m.

Type: Fishing. MMSI: 211417588.

Date/timePositionNaut miles runAvg speedWind from/ knotsBaromVisibWave heightAir tempDewpointWater temp
2018-Apr-25 06:21N 54°07' E 012°05'0 0.0
2018-Apr-25 05:54N 54°07' E 012°05'0 0.0
2018-Apr-25 04:09N 54°07' E 012°05'0 0.0
2018-Apr-25 03:51N 54°07' E 012°05'0 0.0
2018-Apr-25 03:21N 54°07' E 012°05'0 0.0
2018-Apr-25 01:54N 54°07' E 012°05'0 0.0
2018-Apr-25 00:57N 54°07' E 012°05'0 0.0
2018-Apr-24 23:54N 54°07' E 012°05'0 0.0
2018-Apr-24 23:27N 54°07' E 012°05'0 0.0
2018-Apr-24 23:00N 54°07' E 012°05'0 0.0
2018-Apr-24 22:30N 54°07' E 012°05'0 0.0
2018-Apr-24 22:00N 54°07' E 012°05'0 0.0
2018-Apr-24 19:45N 54°07' E 012°05'0 0.0
2018-Apr-24 19:24N 54°07' E 012°05'0 0.0
2018-Apr-24 19:00N 54°07' E 012°05'0 0.0
2018-Apr-24 18:30N 54°07' E 012°05'0 0.0
2018-Apr-24 17:36N 54°07' E 012°05'0 0.0
2018-Apr-24 17:30N 54°07' E 012°05'0 0.0
2018-Apr-24 17:00N 54°07' E 012°05'0 0.0
2018-Apr-24 16:21N 54°07' E 012°05'0 0.0
2018-Apr-24 15:12N 54°07' E 012°05'0 0.0
2018-Apr-24 14:51N 54°07' E 012°05'0 0.0
2018-Apr-24 13:33N 54°07' E 012°05'0 0.0
2018-Apr-24 13:30N 54°07' E 012°05'0 0.0
2018-Apr-24 13:00N 54°07' E 012°05'0 0.0
2018-Apr-24 10:57N 54°07' E 012°05'0 0.0
2018-Apr-24 09:24N 54°07' E 012°05'0 0.1
2018-Apr-24 09:01N 54°07' E 012°05'3 5.5
2018-Apr-24 08:30N 54°09' E 012°06'3 6.3
2018-Apr-24 08:00N 54°12' E 012°02'1 0.7
2018-Apr-24 07:00N 54°12' E 012°01'1 2.4
2018-Apr-24 06:30N 54°12' E 012°03'4 6.0
2018-Apr-24 05:55N 54°09' E 012°06'2 4.8
2018-Apr-24 05:30N 54°07' E 012°05'0 0.0
2018-Apr-24 04:27N 54°07' E 012°05'0 0.0
2018-Apr-24 02:39N 54°07' E 012°05'0 0.1
2018-Apr-24 02:30N 54°07' E 012°05'0 0.0
2018-Apr-24 00:51N 54°07' E 012°05'0 0.0
2018-Apr-24 00:30N 54°07' E 012°05'0 0.0
2018-Apr-24 00:00N 54°07' E 012°05'0 0.0
2018-Apr-23 23:12N 54°07' E 012°05'0 0.0
2018-Apr-23 22:57N 54°07' E 012°05'0 0.0
2018-Apr-23 22:30N 54°07' E 012°05'0 0.0
2018-Apr-23 21:06N 54°07' E 012°05'0 0.0
2018-Apr-23 20:54N 54°07' E 012°05'0 0.0
2018-Apr-23 20:30N 54°07' E 012°05'0 0.0
2018-Apr-23 19:39N 54°07' E 012°05'0 0.0
2018-Apr-23 19:27N 54°07' E 012°05'0 0.0
2018-Apr-23 18:54N 54°07' E 012°05'0 0.0
2018-Apr-23 16:24N 54°07' E 012°05'0 0.0
2018-Apr-23 16:00N 54°07' E 012°05'0 0.0
2018-Apr-23 15:30N 54°07' E 012°05'0 0.0
2018-Apr-23 14:24N 54°07' E 012°05'0 0.0
2018-Apr-23 13:27N 54°07' E 012°05'0 0.0
2018-Apr-23 13:00N 54°07' E 012°05'0 0.0
2018-Apr-23 11:51N 54°07' E 012°05'0 0.0
2018-Apr-23 11:27N 54°07' E 012°05'0 0.0
2018-Apr-23 11:00N 54°07' E 012°05'0 0.0
2018-Apr-23 10:27N 54°07' E 012°05'0 0.0
2018-Apr-23 10:00N 54°07' E 012°05'0 0.0
2018-Apr-23 08:21N 54°07' E 012°05'0 0.0
2018-Apr-23 06:06N 54°07' E 012°05'0 0.0
2018-Apr-23 05:39N 54°07' E 012°05'0 0.0
2018-Apr-23 05:21N 54°07' E 012°05'0 0.0
2018-Apr-23 05:00N 54°07' E 012°05'0 0.0
2018-Apr-23 03:42N 54°07' E 012°05'0 0.0
2018-Apr-23 03:30N 54°07' E 012°05'0 0.0
2018-Apr-23 02:42N 54°07' E 012°05'0 0.0
2018-Apr-23 02:27N 54°07' E 012°05'0 0.0
2018-Apr-23 00:24N 54°07' E 012°05'0 0.0
2018-Apr-23 00:00N 54°07' E 012°05'0 0.0
2018-Apr-22 22:27N 54°07' E 012°05'0 0.0
2018-Apr-22 22:00N 54°07' E 012°05'0 0.0
2018-Apr-22 21:30N 54°07' E 012°05'0 0.0
2018-Apr-22 19:57N 54°07' E 012°05'0 0.0
2018-Apr-22 19:00N 54°07' E 012°05'0 0.0
2018-Apr-22 18:30N 54°07' E 012°05'0 0.0
2018-Apr-22 16:36N 54°07' E 012°05'0 0.0
2018-Apr-22 16:30N 54°07' E 012°05'0 0.0
2018-Apr-22 15:57N 54°07' E 012°05'0 0.0
2018-Apr-22 13:39N 54°07' E 012°05'0 0.0
2018-Apr-22 13:30N 54°07' E 012°05'0 0.0
2018-Apr-22 12:45N 54°07' E 012°05'0 0.0
2018-Apr-22 11:42N 54°07' E 012°05'0 0.0
2018-Apr-22 11:30N 54°07' E 012°05'0 0.0
2018-Apr-22 10:40N 54°07' E 012°05'0 0.0
2018-Apr-22 10:24N 54°07' E 012°05'0 0.0
2018-Apr-22 10:00N 54°07' E 012°05'0 0.0
2018-Apr-22 08:30N 54°07' E 012°05'0 0.0
2018-Apr-22 08:00N 54°07' E 012°05'0 0.0
2018-Apr-22 05:57N 54°07' E 012°05'0 0.0
2018-Apr-22 05:00N 54°07' E 012°05'0 0.0
2018-Apr-22 04:24N 54°07' E 012°05'0 0.0
2018-Apr-22 03:54N 54°07' E 012°05'0 0.0
2018-Apr-22 03:00N 54°07' E 012°05'0 0.0
2018-Apr-22 00:15N 54°07' E 012°05'0 0.0
2018-Apr-21 23:54N 54°07' E 012°05'0 0.0
2018-Apr-21 21:45N 54°07' E 012°05'0 0.0
2018-Apr-21 21:15N 54°07' E 012°05'0 0.0
2018-Apr-21 20:57N 54°07' E 012°05'0 0.0
2018-Apr-21 19:44N 54°07' E 012°05'0 0.0
2018-Apr-21 19:12N 54°07' E 012°05'0 0.0
2018-Apr-21 18:57N 54°07' E 012°05'0 0.0
2018-Apr-21 18:30N 54°07' E 012°05'0 0.0
2018-Apr-21 17:57N 54°07' E 012°05'0 0.0
2018-Apr-21 17:15N 54°07' E 012°05'0 0.0
2018-Apr-21 17:00N 54°07' E 012°05'0 0.0
2018-Apr-21 14:30N 54°07' E 012°05'0 0.0
2018-Apr-21 14:00N 54°07' E 012°05'0 0.0
2018-Apr-21 12:54N 54°07' E 012°05'0 0.0
2018-Apr-21 12:30N 54°07' E 012°05'0 0.0
2018-Apr-21 11:51N 54°07' E 012°05'0 0.0
2018-Apr-21 10:00N 54°07' E 012°05'0 0.0
2018-Apr-21 08:44N 54°07' E 012°05'0 0.0
2018-Apr-21 08:30N 54°07' E 012°05'0 0.0
2018-Apr-21 06:24N 54°07' E 012°05'0 0.0
2018-Apr-21 06:00N 54°07' E 012°05'0 0.0
2018-Apr-21 05:27N 54°07' E 012°05'0 0.0
2018-Apr-21 03:14N 54°07' E 012°05'0 0.0
2018-Apr-21 02:59N 54°07' E 012°05'0 0.0
2018-Apr-21 02:15N 54°07' E 012°05'0 0.0
2018-Apr-21 02:00N 54°07' E 012°05'0 0.0
2018-Apr-21 01:14N 54°07' E 012°05'0 0.0
2018-Apr-21 00:59N 54°07' E 012°05'0 0.0
2018-Apr-21 00:29N 54°07' E 012°05'0 0.0
2018-Apr-20 23:56N 54°07' E 012°05'0 0.0
2018-Apr-20 23:30N 54°07' E 012°05'0 0.0
2018-Apr-20 22:54N 54°07' E 012°05'0 0.0
2018-Apr-20 22:03N 54°07' E 012°05'0 0.0
2018-Apr-20 21:53N 54°07' E 012°05'0 0.0
2018-Apr-20 21:29N 54°07' E 012°05'0 0.0
2018-Apr-20 19:29N 54°07' E 012°05'0 0.0
2018-Apr-20 18:35N 54°07' E 012°05'0 0.1
2018-Apr-20 18:29N 54°07' E 012°05'0 0.0
2018-Apr-20 17:59N 54°07' E 012°05'0 0.0
2018-Apr-20 17:29N 54°07' E 012°05'0 0.0
2018-Apr-20 16:59N 54°07' E 012°05'0 0.0
2018-Apr-20 16:29N 54°07' E 012°05'0 0.0
2018-Apr-20 15:14N 54°07' E 012°05'0 0.0
2018-Apr-20 12:06N 54°07' E 012°05'0 0.0
2018-Apr-20 11:47N 54°07' E 012°05'0 0.0
2018-Apr-20 11:29N 54°07' E 012°05'0 0.0
2018-Apr-20 10:59N 54°07' E 012°05'0 0.0
2018-Apr-20 10:29N 54°07' E 012°05'0 0.0
2018-Apr-20 09:59N 54°07' E 012°05'0 0.0
2018-Apr-20 09:29N 54°07' E 012°05'0 0.0
2018-Apr-20 08:59N 54°07' E 012°05'0 0.0
2018-Apr-20 07:59N 54°07' E 012°05'0 0.0
2018-Apr-20 07:26N 54°07' E 012°05'0 0.0
2018-Apr-20 05:53N 54°07' E 012°05'0 0.0
2018-Apr-20 05:29N 54°07' E 012°05'0 0.0
2018-Apr-20 04:59N 54°07' E 012°05'0 0.0
2018-Apr-20 04:29N 54°07' E 012°05'0 0.0
2018-Apr-20 03:53N 54°07' E 012°05'0 0.0
2018-Apr-20 03:29N 54°07' E 012°05'0 0.0
2018-Apr-20 01:56N 54°07' E 012°05'0 0.0
2018-Apr-20 01:11N 54°07' E 012°05'0 0.0
2018-Apr-20 00:38N 54°07' E 012°05'0 0.0
2018-Apr-19 22:14N 54°07' E 012°05'0 0.0
2018-Apr-19 21:56N 54°07' E 012°05'0 0.0
2018-Apr-19 21:29N 54°07' E 012°05'0 0.0
2018-Apr-19 19:44N 54°07' E 012°05'0 0.0
2018-Apr-19 19:29N 54°07' E 012°05'0 0.0
2018-Apr-19 18:44N 54°07' E 012°05'0 0.0
2018-Apr-19 18:29N 54°07' E 012°05'0 0.0
2018-Apr-19 17:53N 54°07' E 012°05'0 0.0
2018-Apr-19 17:26N 54°07' E 012°05'0 0.0
2018-Apr-19 15:29N 54°07' E 012°05'0 0.0
2018-Apr-19 13:53N 54°07' E 012°05'0 0.0
2018-Apr-19 13:26N 54°07' E 012°05'1 2.0
2018-Apr-19 13:00N 54°06' E 012°06'1 2.9 010 / 81031.4 19.612.9 9.7
2018-Apr-19 12:41N 54°07' E 012°05'0 0.0
2018-Apr-19 12:29N 54°07' E 012°05'1 1.8
2018-Apr-19 12:00N 54°06' E 012°06'1 1.7 010 / 81031.7 21.712.0 8.8
2018-Apr-19 11:29N 54°07' E 012°05'1 1.8
2018-Apr-19 11:00N 54°06' E 012°06'0 0.0 090 / 21031.9 19.610.9 8.9
2018-Apr-19 10:00N 54°06' E 012°06'1 5.8 100 / 61032.3 18.610.7 9.1
2018-Apr-19 09:50N 54°07' E 012°05'0 0.0
2018-Apr-19 09:17N 54°07' E 012°05'0 0.0
2018-Apr-19 08:53N 54°07' E 012°05'0 0.0
2018-Apr-19 08:26N 54°07' E 012°05'0 0.0
2018-Apr-19 07:11N 54°07' E 012°05'0 0.0
2018-Apr-19 06:56N 54°07' E 012°05'0 0.0
2018-Apr-19 06:26N 54°07' E 012°05'0 0.0
2018-Apr-19 05:56N 54°07' E 012°05'0 0.0
2018-Apr-19 04:41N 54°07' E 012°05'0 0.0
2018-Apr-19 04:26N 54°07' E 012°05'0 0.0
2018-Apr-19 03:44N 54°07' E 012°05'0 0.0
2018-Apr-19 03:29N 54°07' E 012°05'0 0.0
2018-Apr-19 02:59N 54°07' E 012°05'0 0.0
2018-Apr-19 02:29N 54°07' E 012°05'0 0.0
2018-Apr-19 01:59N 54°07' E 012°05'0 0.0
2018-Apr-19 01:29N 54°07' E 012°05'0 0.0
2018-Apr-19 00:02N 54°07' E 012°05'0 0.0
2018-Apr-18 23:47N 54°07' E 012°05'0 0.0
2018-Apr-18 23:29N 54°07' E 012°05'0 0.0
2018-Apr-18 22:29N 54°07' E 012°05'0 0.0
2018-Apr-18 17:38N 54°07' E 012°05'0 0.0
2018-Apr-18 16:26N 54°07' E 012°05'0 0.0
2018-Apr-18 15:56N 54°07' E 012°05'0 0.0
2018-Apr-18 15:26N 54°07' E 012°05'0 0.0
2018-Apr-18 13:41N 54°07' E 012°05'0 0.0
2018-Apr-18 12:44N 54°07' E 012°05'0 0.0
2018-Apr-18 12:29N 54°07' E 012°05'0 0.0
2018-Apr-18 11:44N 54°07' E 012°05'0 0.0
2018-Apr-18 11:29N 54°07' E 012°05'0 0.0
2018-Apr-18 10:44N 54°07' E 012°05'0 0.0
2018-Apr-18 10:29N 54°07' E 012°05'0 0.0
2018-Apr-18 09:32N 54°07' E 012°05'0 0.0
2018-Apr-18 09:29N 54°07' E 012°05'0 0.0
2018-Apr-18 08:50N 54°07' E 012°05'0 0.0
2018-Apr-18 08:29N 54°07' E 012°05'0 0.0
2018-Apr-18 07:50N 54°07' E 012°05'0 0.0
2018-Apr-18 06:26N 54°07' E 012°05'0 0.0
2018-Apr-18 05:53N 54°07' E 012°05'0 0.0
2018-Apr-18 04:53N 54°07' E 012°05'0 0.0
2018-Apr-18 04:23N 54°07' E 012°05'0 0.0
2018-Apr-18 03:59N 54°07' E 012°05'0 0.0
2018-Apr-18 03:11N 54°07' E 012°05'0 0.0
2018-Apr-18 02:53N 54°07' E 012°05'0 0.0
2018-Apr-18 02:08N 54°07' E 012°05'0 0.0
2018-Apr-18 01:53N 54°07' E 012°05'0 0.0
2018-Apr-17 23:14N 54°07' E 012°05'0 0.0
2018-Apr-17 21:32N 54°07' E 012°05'0 0.0
2018-Apr-17 21:14N 54°07' E 012°05'0 0.0
2018-Apr-17 19:44N 54°07' E 012°05'0 0.0
2018-Apr-17 19:29N 54°07' E 012°05'0 0.0
2018-Apr-17 18:50N 54°07' E 012°05'0 0.0
2018-Apr-17 18:05N 54°07' E 012°05'0 0.0
2018-Apr-17 16:26N 54°07' E 012°05'0 0.0
2018-Apr-17 15:53N 54°07' E 012°05'0 0.0
2018-Apr-17 15:23N 54°07' E 012°05'0 0.0
2018-Apr-17 14:59N 54°07' E 012°05'0 0.0
2018-Apr-17 13:59N 54°07' E 012°05'0 0.0
2018-Apr-17 11:56N 54°07' E 012°05'0 0.0
2018-Apr-17 11:26N 54°07' E 012°05'0 0.0
2018-Apr-17 10:47N 54°07' E 012°05'0 0.0
2018-Apr-17 09:53N 54°07' E 012°05'0 0.0
2018-Apr-17 07:56N 54°07' E 012°05'0 0.0
2018-Apr-17 05:44N 54°07' E 012°05'0 0.0
2018-Apr-17 05:17N 54°07' E 012°05'0 0.0
2018-Apr-17 04:59N 54°07' E 012°05'0 0.0
2018-Apr-17 04:29N 54°07' E 012°05'0 0.0
2018-Apr-17 03:44N 54°07' E 012°05'0 0.0
2018-Apr-17 03:20N 54°07' E 012°05'0 0.0
2018-Apr-17 02:47N 54°07' E 012°05'0 0.0
2018-Apr-17 02:20N 54°07' E 012°05'0 0.0
2018-Apr-17 00:26N 54°07' E 012°05'0 0.0
2018-Apr-16 23:59N 54°07' E 012°05'0 0.0
2018-Apr-16 21:41N 54°07' E 012°05'0 0.1
2018-Apr-16 21:26N 54°07' E 012°05'0 0.0
2018-Apr-16 20:17N 54°07' E 012°05'0 0.0
2018-Apr-16 19:56N 54°07' E 012°05'0 0.0
2018-Apr-16 19:26N 54°07' E 012°05'0 0.0
2018-Apr-16 18:59N 54°07' E 012°05'0 0.0
2018-Apr-16 16:38N 54°07' E 012°05'0 0.1
2018-Apr-16 16:29N 54°07' E 012°05'0 0.0
2018-Apr-16 15:29N 54°07' E 012°05'0 0.0
2018-Apr-16 14:29N 54°07' E 012°05'0 0.0
2018-Apr-16 13:29N 54°07' E 012°05'0 0.0
2018-Apr-16 11:35N 54°07' E 012°05'0 0.0
2018-Apr-16 11:14N 54°07' E 012°05'0 0.0
2018-Apr-16 10:56N 54°07' E 012°05'0 0.0
2018-Apr-16 09:50N 54°07' E 012°05'0 0.0
2018-Apr-16 08:38N 54°07' E 012°05'0 0.0
2018-Apr-16 08:23N 54°07' E 012°05'0 0.0
2018-Apr-16 06:38N 54°07' E 012°05'0 0.0
2018-Apr-16 06:26N 54°07' E 012°05'0 0.0
2018-Apr-16 05:38N 54°07' E 012°05'0 0.0
2018-Apr-16 05:26N 54°07' E 012°05'0 0.0
2018-Apr-16 04:41N 54°07' E 012°05'0 0.1
2018-Apr-16 04:29N 54°07' E 012°05'0 0.0
2018-Apr-16 03:59N 54°07' E 012°05'0 0.0
2018-Apr-16 01:59N 54°07' E 012°05'0 0.0
2018-Apr-16 01:26N 54°07' E 012°05'0 0.0
2018-Apr-15 23:59N 54°07' E 012°05'0 0.0
2018-Apr-15 23:17N 54°07' E 012°05'0 0.0
2018-Apr-15 22:59N 54°07' E 012°05'0 0.0
2018-Apr-15 22:29N 54°07' E 012°05'0 0.0
2018-Apr-15 21:47N 54°07' E 012°05'0 0.0
2018-Apr-15 20:05N 54°07' E 012°05'0 0.0
2018-Apr-15 19:50N 54°07' E 012°05'0 0.0
2018-Apr-15 19:20N 54°07' E 012°05'0 0.0
2018-Apr-15 18:50N 54°07' E 012°05'0 0.0
2018-Apr-15 18:29N 54°07' E 012°05'0 0.0
2018-Apr-15 17:50N 54°07' E 012°05'0 0.0
2018-Apr-15 17:29N 54°07' E 012°05'1 1.8
2018-Apr-15 17:00N 54°06' E 012°06'1 5.5 080 / 81013.3 10.9 8.710.2
2018-Apr-15 16:50N 54°07' E 012°05'1 1.0
2018-Apr-15 16:00N 54°06' E 012°06'1 2.4 040 / 81013.6 11.9 8.910.0
2018-Apr-15 15:38N 54°07' E 012°05'0 0.0
2018-Apr-15 15:29N 54°07' E 012°05'1 1.8
2018-Apr-15 15:00N 54°06' E 012°06'1 8.1 060 / 81013.8 11.0 8.3 9.3
2018-Apr-15 14:53N 54°07' E 012°05'0 0.0
2018-Apr-15 14:26N 54°07' E 012°05'1 2.0
2018-Apr-15 14:00N 54°06' E 012°06'0 0.0 010 / 61014.8 10.7 7.5 9.6
2018-Apr-15 13:00N 54°06' E 012°06'1 1.6 020 / 81015.4 10.1 7.4 8.4
2018-Apr-15 12:26N 54°07' E 012°05'1 2.0
2018-Apr-15 12:00N 54°06' E 012°06'195.9 010 / 101015.7 9.7 7.5 7.4
2018-Apr-15 11:59N 54°07' E 012°05'0 0.0
2018-Apr-15 11:30N 54°07' E 012°05'1 1.7
2018-Apr-15 11:00N 54°06' E 012°06'114.8 010 / 61016.2 11.9 7.1 6.9
2018-Apr-15 10:56N 54°07' E 012°05'0 0.0
2018-Apr-15 10:17N 54°07' E 012°05'1 3.0
2018-Apr-15 10:00N 54°06' E 012°06'179.4 010 / 41016.0 12.7 7.7 7.0
2018-Apr-15 09:59N 54°07' E 012°05'1 0.9
2018-Apr-15 09:00N 54°06' E 012°06'1 1.0 1016.6 9.7 7.8 7.0
2018-Apr-15 08:08N 54°07' E 012°05'1 6.3
2018-Apr-15 08:00N 54°06' E 012°06'182.1 140 / 41016.9 8.8 7.6 7.2
2018-Apr-15 07:59N 54°07' E 012°05'1 0.9
2018-Apr-15 07:00N 54°06' E 012°06'1 4.2 190 / 21016.9 8.0 7.1 7.2
2018-Apr-15 06:47N 54°07' E 012°05'  
Track history (hours):
 
Tides and Currents Weather Stations Pressure Air Temp Water Temp Dewpoint Dewpoint Depression Visibility Wind Speed Wind Dir Waves Ship Positions

Solea

Last reported at 2018-Apr-25 06:21 UTC. Time now 2018-Apr-25 06:47 UTC.
Position N 54°07' E 012°05'.

Length 42.7 m; beam 9.8 m; draft 4.8 m.

Type: Fishing. MMSI: 211417588.

Date/timePositionNaut miles runAvg speedWind from/ knotsBaromVisibWave heightAir tempDewpointWater temp
2018-Apr-25 06:21N 54°07' E 012°05'0 0.0
2018-Apr-25 05:54N 54°07' E 012°05'0 0.0
2018-Apr-25 04:09N 54°07' E 012°05'0 0.0
2018-Apr-25 03:51N 54°07' E 012°05'0 0.0
2018-Apr-25 03:21N 54°07' E 012°05'0 0.0
2018-Apr-25 01:54N 54°07' E 012°05'0 0.0
2018-Apr-25 00:57N 54°07' E 012°05'0 0.0
2018-Apr-24 23:54N 54°07' E 012°05'0 0.0
2018-Apr-24 23:27N 54°07' E 012°05'0 0.0
2018-Apr-24 23:00N 54°07' E 012°05'0 0.0
2018-Apr-24 22:30N 54°07' E 012°05'0 0.0
2018-Apr-24 22:00N 54°07' E 012°05'0 0.0
2018-Apr-24 19:45N 54°07' E 012°05'0 0.0
2018-Apr-24 19:24N 54°07' E 012°05'0 0.0
2018-Apr-24 19:00N 54°07' E 012°05'0 0.0
2018-Apr-24 18:30N 54°07' E 012°05'0 0.0
2018-Apr-24 17:36N 54°07' E 012°05'0 0.0
2018-Apr-24 17:30N 54°07' E 012°05'0 0.0
2018-Apr-24 17:00N 54°07' E 012°05'0 0.0
2018-Apr-24 16:21N 54°07' E 012°05'0 0.0
2018-Apr-24 15:12N 54°07' E 012°05'0 0.0
2018-Apr-24 14:51N 54°07' E 012°05'0 0.0
2018-Apr-24 13:33N 54°07' E 012°05'0 0.0
2018-Apr-24 13:30N 54°07' E 012°05'0 0.0
2018-Apr-24 13:00N 54°07' E 012°05'0 0.0
2018-Apr-24 10:57N 54°07' E 012°05'0 0.0
2018-Apr-24 09:24N 54°07' E 012°05'0 0.1
2018-Apr-24 09:01N 54°07' E 012°05'3 5.5
2018-Apr-24 08:30N 54°09' E 012°06'3 6.3
2018-Apr-24 08:00N 54°12' E 012°02'1 0.7
2018-Apr-24 07:00N 54°12' E 012°01'1 2.4
2018-Apr-24 06:30N 54°12' E 012°03'4 6.0
2018-Apr-24 05:55N 54°09' E 012°06'2 4.8
2018-Apr-24 05:30N 54°07' E 012°05'0 0.0
2018-Apr-24 04:27N 54°07' E 012°05'0 0.0
2018-Apr-24 02:39N 54°07' E 012°05'0 0.1
2018-Apr-24 02:30N 54°07' E 012°05'0 0.0
2018-Apr-24 00:51N 54°07' E 012°05'0 0.0
2018-Apr-24 00:30N 54°07' E 012°05'0 0.0
2018-Apr-24 00:00N 54°07' E 012°05'0 0.0
2018-Apr-23 23:12N 54°07' E 012°05'0 0.0
2018-Apr-23 22:57N 54°07' E 012°05'0 0.0
2018-Apr-23 22:30N 54°07' E 012°05'0 0.0
2018-Apr-23 21:06N 54°07' E 012°05'0 0.0
2018-Apr-23 20:54N 54°07' E 012°05'0 0.0
2018-Apr-23 20:30N 54°07' E 012°05'0 0.0
2018-Apr-23 19:39N 54°07' E 012°05'0 0.0
2018-Apr-23 19:27N 54°07' E 012°05'0 0.0
2018-Apr-23 18:54N 54°07' E 012°05'0 0.0
2018-Apr-23 16:24N 54°07' E 012°05'0 0.0
2018-Apr-23 16:00N 54°07' E 012°05'0 0.0
2018-Apr-23 15:30N 54°07' E 012°05'0 0.0
2018-Apr-23 14:24N 54°07' E 012°05'0 0.0
2018-Apr-23 13:27N 54°07' E 012°05'0 0.0
2018-Apr-23 13:00N 54°07' E 012°05'0 0.0
2018-Apr-23 11:51N 54°07' E 012°05'0 0.0
2018-Apr-23 11:27N 54°07' E 012°05'0 0.0
2018-Apr-23 11:00N 54°07' E 012°05'0 0.0
2018-Apr-23 10:27N 54°07' E 012°05'0 0.0
2018-Apr-23 10:00N 54°07' E 012°05'0 0.0
2018-Apr-23 08:21N 54°07' E 012°05'0 0.0
2018-Apr-23 06:06N 54°07' E 012°05'0 0.0
2018-Apr-23 05:39N 54°07' E 012°05'0 0.0
2018-Apr-23 05:21N 54°07' E 012°05'0 0.0
2018-Apr-23 05:00N 54°07' E 012°05'0 0.0
2018-Apr-23 03:42N 54°07' E 012°05'0 0.0
2018-Apr-23 03:30N 54°07' E 012°05'0 0.0
2018-Apr-23 02:42N 54°07' E 012°05'0 0.0
2018-Apr-23 02:27N 54°07' E 012°05'0 0.0
2018-Apr-23 00:24N 54°07' E 012°05'0 0.0
2018-Apr-23 00:00N 54°07' E 012°05'0 0.0
2018-Apr-22 22:27N 54°07' E 012°05'0 0.0
2018-Apr-22 22:00N 54°07' E 012°05'0 0.0
2018-Apr-22 21:30N 54°07' E 012°05'0 0.0
2018-Apr-22 19:57N 54°07' E 012°05'0 0.0
2018-Apr-22 19:00N 54°07' E 012°05'0 0.0
2018-Apr-22 18:30N 54°07' E 012°05'0 0.0
2018-Apr-22 16:36N 54°07' E 012°05'0 0.0
2018-Apr-22 16:30N 54°07' E 012°05'0 0.0
2018-Apr-22 15:57N 54°07' E 012°05'0 0.0
2018-Apr-22 13:39N 54°07' E 012°05'0 0.0
2018-Apr-22 13:30N 54°07' E 012°05'0 0.0
2018-Apr-22 12:45N 54°07' E 012°05'0 0.0
2018-Apr-22 11:42N 54°07' E 012°05'0 0.0
2018-Apr-22 11:30N 54°07' E 012°05'0 0.0
2018-Apr-22 10:40N 54°07' E 012°05'0 0.0
2018-Apr-22 10:24N 54°07' E 012°05'0 0.0
2018-Apr-22 10:00N 54°07' E 012°05'0 0.0
2018-Apr-22 08:30N 54°07' E 012°05'0 0.0
2018-Apr-22 08:00N 54°07' E 012°05'0 0.0
2018-Apr-22 05:57N 54°07' E 012°05'0 0.0
2018-Apr-22 05:00N 54°07' E 012°05'0 0.0
2018-Apr-22 04:24N 54°07' E 012°05'0 0.0
2018-Apr-22 03:54N 54°07' E 012°05'0 0.0
2018-Apr-22 03:00N 54°07' E 012°05'0 0.0
2018-Apr-22 00:15N 54°07' E 012°05'0 0.0
2018-Apr-21 23:54N 54°07' E 012°05'0 0.0
2018-Apr-21 21:45N 54°07' E 012°05'0 0.0
2018-Apr-21 21:15N 54°07' E 012°05'0 0.0
2018-Apr-21 20:57N 54°07' E 012°05'0 0.0
2018-Apr-21 19:44N 54°07' E 012°05'0 0.0
2018-Apr-21 19:12N 54°07' E 012°05'0 0.0
2018-Apr-21 18:57N 54°07' E 012°05'0 0.0
2018-Apr-21 18:30N 54°07' E 012°05'0 0.0
2018-Apr-21 17:57N 54°07' E 012°05'0 0.0
2018-Apr-21 17:15N 54°07' E 012°05'0 0.0
2018-Apr-21 17:00N 54°07' E 012°05'0 0.0
2018-Apr-21 14:30N 54°07' E 012°05'0 0.0
2018-Apr-21 14:00N 54°07' E 012°05'0 0.0
2018-Apr-21 12:54N 54°07' E 012°05'0 0.0
2018-Apr-21 12:30N 54°07' E 012°05'0 0.0
2018-Apr-21 11:51N 54°07' E 012°05'0 0.0
2018-Apr-21 10:00N 54°07' E 012°05'0 0.0
2018-Apr-21 08:44N 54°07' E 012°05'0 0.0
2018-Apr-21 08:30N 54°07' E 012°05'0 0.0
2018-Apr-21 06:24N 54°07' E 012°05'0 0.0
2018-Apr-21 06:00N 54°07' E 012°05'0 0.0
2018-Apr-21 05:27N 54°07' E 012°05'0 0.0
2018-Apr-21 03:14N 54°07' E 012°05'0 0.0
2018-Apr-21 02:59N 54°07' E 012°05'0 0.0
2018-Apr-21 02:15N 54°07' E 012°05'0 0.0
2018-Apr-21 02:00N 54°07' E 012°05'0 0.0
2018-Apr-21 01:14N 54°07' E 012°05'0 0.0
2018-Apr-21 00:59N 54°07' E 012°05'0 0.0
2018-Apr-21 00:29N 54°07' E 012°05'0 0.0
2018-Apr-20 23:56N 54°07' E 012°05'0 0.0
2018-Apr-20 23:30N 54°07' E 012°05'0 0.0
2018-Apr-20 22:54N 54°07' E 012°05'0 0.0
2018-Apr-20 22:03N 54°07' E 012°05'0 0.0
2018-Apr-20 21:53N 54°07' E 012°05'0 0.0
2018-Apr-20 21:29N 54°07' E 012°05'0 0.0
2018-Apr-20 19:29N 54°07' E 012°05'0 0.0
2018-Apr-20 18:35N 54°07' E 012°05'0 0.1
2018-Apr-20 18:29N 54°07' E 012°05'0 0.0
2018-Apr-20 17:59N 54°07' E 012°05'0 0.0
2018-Apr-20 17:29N 54°07' E 012°05'0 0.0
2018-Apr-20 16:59N 54°07' E 012°05'0 0.0
2018-Apr-20 16:29N 54°07' E 012°05'0 0.0
2018-Apr-20 15:14N 54°07' E 012°05'0 0.0
2018-Apr-20 12:06N 54°07' E 012°05'0 0.0
2018-Apr-20 11:47N 54°07' E 012°05'0 0.0
2018-Apr-20 11:29N 54°07' E 012°05'0 0.0
2018-Apr-20 10:59N 54°07' E 012°05'0 0.0
2018-Apr-20 10:29N 54°07' E 012°05'0 0.0
2018-Apr-20 09:59N 54°07' E 012°05'0 0.0
2018-Apr-20 09:29N 54°07' E 012°05'0 0.0
2018-Apr-20 08:59N 54°07' E 012°05'0 0.0
2018-Apr-20 07:59N 54°07' E 012°05'0 0.0
2018-Apr-20 07:26N 54°07' E 012°05'0 0.0
2018-Apr-20 05:53N 54°07' E 012°05'0 0.0
2018-Apr-20 05:29N 54°07' E 012°05'0 0.0
2018-Apr-20 04:59N 54°07' E 012°05'0 0.0
2018-Apr-20 04:29N 54°07' E 012°05'0 0.0
2018-Apr-20 03:53N 54°07' E 012°05'0 0.0
2018-Apr-20 03:29N 54°07' E 012°05'0 0.0
2018-Apr-20 01:56N 54°07' E 012°05'0 0.0
2018-Apr-20 01:11N 54°07' E 012°05'0 0.0
2018-Apr-20 00:38N 54°07' E 012°05'0 0.0
2018-Apr-19 22:14N 54°07' E 012°05'0 0.0
2018-Apr-19 21:56N 54°07' E 012°05'0 0.0
2018-Apr-19 21:29N 54°07' E 012°05'0 0.0
2018-Apr-19 19:44N 54°07' E 012°05'0 0.0
2018-Apr-19 19:29N 54°07' E 012°05'0 0.0
2018-Apr-19 18:44N 54°07' E 012°05'0 0.0
2018-Apr-19 18:29N 54°07' E 012°05'0 0.0
2018-Apr-19 17:53N 54°07' E 012°05'0 0.0
2018-Apr-19 17:26N 54°07' E 012°05'0 0.0
2018-Apr-19 15:29N 54°07' E 012°05'0 0.0
2018-Apr-19 13:53N 54°07' E 012°05'0 0.0
2018-Apr-19 13:26N 54°07' E 012°05'1 2.0
2018-Apr-19 13:00N 54°06' E 012°06'1 2.9 010 / 81031.4 19.612.9 9.7
2018-Apr-19 12:41N 54°07' E 012°05'0 0.0
2018-Apr-19 12:29N 54°07' E 012°05'1 1.8
2018-Apr-19 12:00N 54°06' E 012°06'1 1.7 010 / 81031.7 21.712.0 8.8
2018-Apr-19 11:29N 54°07' E 012°05'1 1.8
2018-Apr-19 11:00N 54°06' E 012°06'0 0.0 090 / 21031.9 19.610.9 8.9
2018-Apr-19 10:00N 54°06' E 012°06'1 5.8 100 / 61032.3 18.610.7 9.1
2018-Apr-19 09:50N 54°07' E 012°05'0 0.0
2018-Apr-19 09:17N 54°07' E 012°05'0 0.0
2018-Apr-19 08:53N 54°07' E 012°05'0 0.0
2018-Apr-19 08:26N 54°07' E 012°05'0 0.0
2018-Apr-19 07:11N 54°07' E 012°05'0 0.0
2018-Apr-19 06:56N 54°07' E 012°05'0 0.0
2018-Apr-19 06:26N 54°07' E 012°05'0 0.0
2018-Apr-19 05:56N 54°07' E 012°05'0 0.0
2018-Apr-19 04:41N 54°07' E 012°05'0 0.0
2018-Apr-19 04:26N 54°07' E 012°05'0 0.0
2018-Apr-19 03:44N 54°07' E 012°05'0 0.0
2018-Apr-19 03:29N 54°07' E 012°05'0 0.0
2018-Apr-19 02:59N 54°07' E 012°05'0 0.0
2018-Apr-19 02:29N 54°07' E 012°05'0 0.0
2018-Apr-19 01:59N 54°07' E 012°05'0 0.0
2018-Apr-19 01:29N 54°07' E 012°05'0 0.0
2018-Apr-19 00:02N 54°07' E 012°05'0 0.0
2018-Apr-18 23:47N 54°07' E 012°05'0 0.0
2018-Apr-18 23:29N 54°07' E 012°05'0 0.0
2018-Apr-18 22:29N 54°07' E 012°05'0 0.0
2018-Apr-18 17:38N 54°07' E 012°05'0 0.0
2018-Apr-18 16:26N 54°07' E 012°05'0 0.0
2018-Apr-18 15:56N 54°07' E 012°05'0 0.0
2018-Apr-18 15:26N 54°07' E 012°05'0 0.0
2018-Apr-18 13:41N 54°07' E 012°05'0 0.0
2018-Apr-18 12:44N 54°07' E 012°05'0 0.0
2018-Apr-18 12:29N 54°07' E 012°05'0 0.0
2018-Apr-18 11:44N 54°07' E 012°05'0 0.0
2018-Apr-18 11:29N 54°07' E 012°05'0 0.0
2018-Apr-18 10:44N 54°07' E 012°05'0 0.0
2018-Apr-18 10:29N 54°07' E 012°05'0 0.0
2018-Apr-18 09:32N 54°07' E 012°05'0 0.0
2018-Apr-18 09:29N 54°07' E 012°05'0 0.0
2018-Apr-18 08:50N 54°07' E 012°05'0 0.0
2018-Apr-18 08:29N 54°07' E 012°05'0 0.0
2018-Apr-18 07:50N 54°07' E 012°05'0 0.0
2018-Apr-18 06:26N 54°07' E 012°05'0 0.0
2018-Apr-18 05:53N 54°07' E 012°05'0 0.0
2018-Apr-18 04:53N 54°07' E 012°05'0 0.0
2018-Apr-18 04:23N 54°07' E 012°05'0 0.0
2018-Apr-18 03:59N 54°07' E 012°05'0 0.0
2018-Apr-18 03:11N 54°07' E 012°05'0 0.0
2018-Apr-18 02:53N 54°07' E 012°05'0 0.0
2018-Apr-18 02:08N 54°07' E 012°05'0 0.0
2018-Apr-18 01:53N 54°07' E 012°05'0 0.0
2018-Apr-17 23:14N 54°07' E 012°05'0 0.0
2018-Apr-17 21:32N 54°07' E 012°05'0 0.0
2018-Apr-17 21:14N 54°07' E 012°05'0 0.0
2018-Apr-17 19:44N 54°07' E 012°05'0 0.0
2018-Apr-17 19:29N 54°07' E 012°05'0 0.0
2018-Apr-17 18:50N 54°07' E 012°05'0 0.0
2018-Apr-17 18:05N 54°07' E 012°05'0 0.0
2018-Apr-17 16:26N 54°07' E 012°05'0 0.0
2018-Apr-17 15:53N 54°07' E 012°05'0 0.0
2018-Apr-17 15:23N 54°07' E 012°05'0 0.0
2018-Apr-17 14:59N 54°07' E 012°05'0 0.0
2018-Apr-17 13:59N 54°07' E 012°05'0 0.0
2018-Apr-17 11:56N 54°07' E 012°05'0 0.0
2018-Apr-17 11:26N 54°07' E 012°05'0 0.0
2018-Apr-17 10:47N 54°07' E 012°05'0 0.0
2018-Apr-17 09:53N 54°07' E 012°05'0 0.0
2018-Apr-17 07:56N 54°07' E 012°05'0 0.0
2018-Apr-17 05:44N 54°07' E 012°05'0 0.0
2018-Apr-17 05:17N 54°07' E 012°05'0 0.0
2018-Apr-17 04:59N 54°07' E 012°05'0 0.0
2018-Apr-17 04:29N 54°07' E 012°05'0 0.0
2018-Apr-17 03:44N 54°07' E 012°05'0 0.0
2018-Apr-17 03:20N 54°07' E 012°05'0 0.0
2018-Apr-17 02:47N 54°07' E 012°05'0 0.0
2018-Apr-17 02:20N 54°07' E 012°05'0 0.0
2018-Apr-17 00:26N 54°07' E 012°05'0 0.0
2018-Apr-16 23:59N 54°07' E 012°05'0 0.0
2018-Apr-16 21:41N 54°07' E 012°05'0 0.1
2018-Apr-16 21:26N 54°07' E 012°05'0 0.0
2018-Apr-16 20:17N 54°07' E 012°05'0 0.0
2018-Apr-16 19:56N 54°07' E 012°05'0 0.0
2018-Apr-16 19:26N 54°07' E 012°05'0 0.0
2018-Apr-16 18:59N 54°07' E 012°05'0 0.0
2018-Apr-16 16:38N 54°07' E 012°05'0 0.1
2018-Apr-16 16:29N 54°07' E 012°05'0 0.0
2018-Apr-16 15:29N 54°07' E 012°05'0 0.0
2018-Apr-16 14:29N 54°07' E 012°05'0 0.0
2018-Apr-16 13:29N 54°07' E 012°05'0 0.0
2018-Apr-16 11:35N 54°07' E 012°05'0 0.0
2018-Apr-16 11:14N 54°07' E 012°05'0 0.0
2018-Apr-16 10:56N 54°07' E 012°05'0 0.0
2018-Apr-16 09:50N 54°07' E 012°05'0 0.0
2018-Apr-16 08:38N 54°07' E 012°05'0 0.0
2018-Apr-16 08:23N 54°07' E 012°05'0 0.0
2018-Apr-16 06:38N 54°07' E 012°05'0 0.0
2018-Apr-16 06:26N 54°07' E 012°05'0 0.0
2018-Apr-16 05:38N 54°07' E 012°05'0 0.0
2018-Apr-16 05:26N 54°07' E 012°05'0 0.0
2018-Apr-16 04:41N 54°07' E 012°05'0 0.1
2018-Apr-16 04:29N 54°07' E 012°05'0 0.0
2018-Apr-16 03:59N 54°07' E 012°05'0 0.0
2018-Apr-16 01:59N 54°07' E 012°05'0 0.0
2018-Apr-16 01:26N 54°07' E 012°05'0 0.0
2018-Apr-15 23:59N 54°07' E 012°05'0 0.0
2018-Apr-15 23:17N 54°07' E 012°05'0 0.0
2018-Apr-15 22:59N 54°07' E 012°05'0 0.0
2018-Apr-15 22:29N 54°07' E 012°05'0 0.0
2018-Apr-15 21:47N 54°07' E 012°05'0 0.0
2018-Apr-15 20:05N 54°07' E 012°05'0 0.0
2018-Apr-15 19:50N 54°07' E 012°05'0 0.0
2018-Apr-15 19:20N 54°07' E 012°05'0 0.0
2018-Apr-15 18:50N 54°07' E 012°05'0 0.0
2018-Apr-15 18:29N 54°07' E 012°05'0 0.0
2018-Apr-15 17:50N 54°07' E 012°05'0 0.0
2018-Apr-15 17:29N 54°07' E 012°05'1 1.8
2018-Apr-15 17:00N 54°06' E 012°06'1 5.5 080 / 81013.3 10.9 8.710.2
2018-Apr-15 16:50N 54°07' E 012°05'1 1.0
2018-Apr-15 16:00N 54°06' E 012°06'1 2.4 040 / 81013.6 11.9 8.910.0
2018-Apr-15 15:38N 54°07' E 012°05'0 0.0
2018-Apr-15 15:29N 54°07' E 012°05'1 1.8
2018-Apr-15 15:00N 54°06' E 012°06'1 8.1 060 / 81013.8 11.0 8.3 9.3
2018-Apr-15 14:53N 54°07' E 012°05'0 0.0
2018-Apr-15 14:26N 54°07' E 012°05'1 2.0
2018-Apr-15 14:00N 54°06' E 012°06'0 0.0 010 / 61014.8 10.7 7.5 9.6
2018-Apr-15 13:00N 54°06' E 012°06'1 1.6 020 / 81015.4 10.1 7.4 8.4
2018-Apr-15 12:26N 54°07' E 012°05'1 2.0
2018-Apr-15 12:00N 54°06' E 012°06'195.9 010 / 101015.7 9.7 7.5 7.4
2018-Apr-15 11:59N 54°07' E 012°05'0 0.0
2018-Apr-15 11:30N 54°07' E 012°05'1 1.7
2018-Apr-15 11:00N 54°06' E 012°06'114.8 010 / 61016.2 11.9 7.1 6.9
2018-Apr-15 10:56N 54°07' E 012°05'0 0.0
2018-Apr-15 10:17N 54°07' E 012°05'1 3.0
2018-Apr-15 10:00N 54°06' E 012°06'179.4 010 / 41016.0 12.7 7.7 7.0
2018-Apr-15 09:59N 54°07' E 012°05'1 0.9
2018-Apr-15 09:00N 54°06' E 012°06'1 1.0 1016.6 9.7 7.8 7.0
2018-Apr-15 08:08N 54°07' E 012°05'1 6.3
2018-Apr-15 08:00N 54°06' E 012°06'182.1 140 / 41016.9 8.8 7.6 7.2
2018-Apr-15 07:59N 54°07' E 012°05'1 0.9
2018-Apr-15 07:00N 54°06' E 012°06'1 4.2 190 / 21016.9 8.0 7.1 7.2
2018-Apr-15 06:47N 54°07' E 012°05'  

Dump ship's entire track history